KFLP

Marion County Regional Airport

Flippin, Arkansas, USA
METAR KFLP 151556Z AUTO 36007G16KT 10SM OVC012 06/04 A3003 RMK AO2 RAB02E49 SLP173 P0000 T00560039
Observed Flight Rules
Dec-15 @ 15:56 UTC (51 minutes ago) Marginal Visual Flight Rules
Wind Visibility Clouds
360° at 7 knots
 Gusting to 16 knots
10 miles
  • Overcast at 1,200' AGL
Temperatures Readings Precipitation
Current 6°C / 43°F
Dewpoint 4°C / 39°F
Humidity 87%
Altimeter 30.03" Hg
Pressure 1017.3 hPa
Elevation 219
Current Rain 0.005
METAR KFLP 151556Z AUTO 36007G16KT 10SM OVC012 06/04 A3003 RMK AO2 RAB02E49 SLP173 P0000 T00560039
Observed Flight Rules
Dec-15 @ 15:56 UTC
(51 minutes ago)
MVFR
Wind Visibility
360° at 7 knots
 Gusting to 16 knots
10 miles
Clouds
  • Overcast at 1,200' AGL
Temperature Dewpoint
6°C / 43°F 4°C / 39°F
Humidity Altimeter Pressure
87% 30.03" Hg 1017.3 hPa
Current Rain
0.005